1st December 2019 | Otago, New Zealand

The Pioneer fuelled by Nutri-Grain (2019)

Stage 5 - Bannockburn to Queenstown Teams

Pos Team Name Team Time Points Category (Pos)
1 (#128) ONYA BIKE NORTH OTAGO 03:45:23 3 Open Men (1)
2 (#151) MARATHONMTB.COM 03:49:40 7 Open Men (2)
3 (#110) GIANT AUSTRALIA OFF-ROAD TEAM 03:51:21 11 Open Men (3)
4 (#148) WINGER HAMILTON 03:56:11 15 Open Men (4)
5 (#126) MCMILLAN CIVIL 04:13:00 21 Open Men (5)
6 (#133) SPECIALISED STRUCTURES 04:13:18 25 Open Men (6)
7 (#106) CYCLE WORLD RACING 04:16:21 30 Open Men (7)
8 (#136) GREENMONKEY 04:16:21 32 Open Men (8)
9 (#333) SRAM MTOSS 04:16:23 37 Mixed (1)
10 (#108) CYCLIST MAGAZINE 04:16:50 41 Open Men (9)
11 (#119) MAAP SHIMANO 04:17:08 45 Open Men (10)
12 (#440) OFF THE CHAIN 04:21:43 49 Masters Men (1)
13 (#410) CYCLE OBSESSION 04:23:00 53 Masters Men (2)
14 (#121) MORTGAGE ME NZ CYCLING PROJECT 04:24:51 57 Open Men (11)
15 (#336) TEAM JOJO 04:26:18 61 Mixed (2)
16 (#326) TEAM NEW WORLD-PIVOT 04:29:10 65 Mixed (3)
17 (#413) DAIKIN THERMAL SOLUTIONS 04:38:22 69 Masters Men (3)
18 (#630) TERREACTIVE IT SECURITY 04:39:36 73 Grand Masters Men (1)
19 (#134) SQUAREONE PHYSIO 04:40:20 77 Open Men (12)
20 (#124) NEW WORLD ST MARTINS 04:41:05 81 Open Men (13)
21 (#102) BLUBLOKES 04:43:24 85 Open Men (14)
22 (#203) STONEWOOD HOMES 04:43:46 89 Open Women (1)
23 (#335) GREENMONKEY/PIVOT CYCLES 04:44:37 93 Mixed (4)
24 (#608) CYCLEWAYS 04:45:18 97 Grand Masters Men (2)
25 (#118) LES MORREAUX 04:45:42 101 Open Men (15)
26 (#633) THE HUB CYCLE CENTRE - RUNNING OUT OF SUMMERS 04:47:29 105 Grand Masters Men (3)
27 (#137) TEAM ELEVATE 04:47:37 111 Open Men (16)
28 (#638) VELO WORKSHOP 04:48:47 115 Grand Masters Men (4)
29 (#411) STICKY BOTTLE 04:48:47 119 Masters Men (4)
30 (#436) SHOW NO WEAKNESS 04:50:25 123 Masters Men (5)
31 (#434) SHAUN & MATT - AKA SHAT 04:51:54 127 Masters Men (6)
32 (#429) OPTIMAL PERFORMANCE 04:52:19 131 Masters Men (7)
33 (#317) MTBVL ADVENTURES 04:52:32 135 Mixed (5)
34 (#105) CIRCUIT ASPHALT 04:52:56 139 Open Men (17)
35 (#444) TEAM SMIDDY 04:53:25 143 Masters Men (8)
36 (#130) PURE SPORTS NUTRITION 04:54:23 147 Open Men (18)
37 (#127) ONE HIT WONDERS 04:57:08 151 Open Men (19)
38 (#139) TEAM VELO-REICHMUTH.CH 04:57:25 155 Open Men (20)
39 (#116) LANKY N RANKY 04:59:19 159 Open Men (21)
40 (#123) NBRCC 05:00:48 163 Open Men (22)
41 (#111) GOOI MIELIES 05:02:49 167 Open Men (23)
42 (#437) SILVERSKYCYCLE 05:02:59 171 Masters Men (9)
43 (#143) THE HANDLEBAR DADS - MOVEMBER NZ 05:03:23 175 Open Men (24)
44 (#305) BIKETO-YUXI TEAM 05:07:03 181 Mixed (6)
45 (#107) CYCLETIME HAMILTON 05:12:19 187 Open Men (25)
46 (#452) VEGAS BOYS 05:13:26 191 Masters Men (10)
47 (#422) KEA - EAGLE 05:13:36 195 Masters Men (11)
48 (#620) RIDETECHNICS 05:13:42 199 Grand Masters Men (5)
49 (#323) SHIMANO PUSHYS CANNONDALE 05:15:03 203 Mixed (7)
50 (#412) CYCLINGTIPS.COM 05:16:44 207 Masters Men (12)
51 (#138) TEAM PINNACLE 05:16:54 211 Open Men (26)
52 (#202) NEW WORLD ST MARTINS WOMEN 05:17:13 215 Open Women (2)
53 (#149) THE PIONEERS 05:20:06 219 Open Men (27)
54 (#428) OLD BOYS OUT OF CONTROL 05:22:37 223 Masters Men (13)
55 (#147) WRBIKES 05:22:47 227 Open Men (28)
56 (#430) OUT OF OFFICE 05:22:54 231 Masters Men (14)
57 (#640) LES CROQUES MONSIEURS 05:23:32 235 Grand Masters Men (6)
58 (#320) REMARKABLE PHYSIOS 05:24:24 239 Mixed (8)
59 (#201) TIKI WINE & VINEYARDS 05:24:55 243 Open Women (3)
60 (#141) TEDS & FLASH 05:25:50 247 Open Men (29)
61 (#405) BLACKYARD RACING - STRAYA 05:25:55 251 Masters Men (15)
62 (#310) EQUIPE IRIS-BOB CYCLO 05:26:20 255 Mixed (9)
63 (#146) TWO WATTS 05:30:57 259 Open Men (30)
64 (#122) GALILEO RISK 05:33:20 263 Open Men (31)
65 (#449) THE VIKINGS 05:35:27 267 Masters Men (16)
66 (#150) TEAM GREFIN 05:35:51 271 Open Men (32)
67 (#641) TWO OLD FOR THIS MATE 05:36:12 275 Grand Masters Men (7)
68 (#424) MEOGP RACING TEAM 05:37:06 279 Masters Men (17)
69 (#104) CALCONASSOS IBIZA 2 05:40:08 283 Open Men (33)
70 (#503) EARNSCLEUGH EXPRESS 05:40:47 287 Masters Women (1)
71 (#301) AKSA TEAM 05:46:27 293 Mixed (10)
72 (#601) 1E SIBA MTB TEAM 05:46:42 297 Grand Masters Men (8)
73 (#621) SEEDED WHEELS 05:47:14 301 Grand Masters Men (9)
74 (#607) CRY N' FEAR 05:47:38 305 Grand Masters Men (10)
75 (#618) RANGI ROCKETS 05:50:13 311 Grand Masters Men (11)
76 (#140) TEAM VICTORY VETS 05:50:32 315 Open Men (34)
77 (#447) THE BENDS 05:51:23 319 Masters Men (18)
78 (#637) TWO SOUTHERN MEN 05:52:24 323 Grand Masters Men (12)
79 (#454) WAZZA DUO 05:53:21 327 Masters Men (19)
80 (#101) FLEET CYCLES 05:53:25 331 Open Men (35)
81 (#409) CALSONASSOS IBIZA 4 05:53:46 335 Masters Men (20)
82 (#314) LIV AND JOE 05:54:08 339 Mixed (11)
83 (#419) ICE 05:56:04 345 Masters Men (21)
84 (#125) NOT HERE TO F**K SPIDERS 05:56:24 349 Open Men (36)
85 (#328) THE FREE WHEELERS 05:58:14 353 Mixed (12)
86 (#313) KISIELS@50 05:58:58 357 Mixed (13)
87 (#135) TARANAKI HARDTAILS 05:59:21 361 Open Men (37)
88 (#315) LYNX REAL ESTATE 06:00:54 365 Mixed (14)
89 (#302) ALREADY KNOW BETTER! 06:01:37 369 Mixed (15)
90 (#318) PADDY & CO 06:02:06 373 Mixed (16)
91 (#446) THE 2 AMIGOS 06:02:34 377 Masters Men (22)
92 (#316) MOUNTAIN SNAILS 06:03:51 381 Mixed (17)
93 (#603) 2DEGREES 06:05:06 385 Grand Masters Men (13)
94 (#604) 86 400 06:05:24 389 Grand Masters Men (14)
95 (#443) TEAM RACK 'N' STACK 06:06:05 393 Masters Men (23)
96 (#508) TEAM CYCLEWAYS 06:06:05 397 Masters Women (2)
97 (#507) OUTLAW SISTERS 06:07:06 401 Masters Women (3)
98 (#407) CALCONASSOS IBIZA 3 06:08:51 407 Masters Men (24)
99 (#402) 4 STRONG LEGS 06:11:31 411 Masters Men (25)
100 (#114) KIESER AUSTRALIA 06:13:08 417 Open Men (38)
101 (#623) SO FAR BUT SO CLOSE 06:13:10 423 Grand Masters Men (15)
102 (#450) THE WOLFPACK 06:15:56 427 Masters Men (26)
103 (#451) TWO WEAK LINKS 06:20:33 437 Masters Men (27)
104 (#113) KELLYS CAFE & BAR 06:20:39 441 Open Men (39)
105 (#321) SERPANTIN 06:22:16 445 Mixed (18)
106 (#433) RPM 06:23:31 449 Masters Men (28)
107 (#438) SINOGULF 06:24:17 453 Masters Men (29)
108 (#417) HILLBILLYS 06:24:28 457 Masters Men (30)
109 (#330) CYCLE OBSESSION - MIXED 06:27:48 463 Mixed (19)
110 (#629) TEAM: NUTRI-GRAIN 06:31:19 467 Grand Masters Men (16)
111 (#401) 2 BROKE BLOKES 06:31:47 471 Masters Men (31)
112 (#426) NEW WORLD KUMEU 06:33:57 479 Masters Men (32)
113 (#303) AN EPIC COMBO 06:35:22 483 Mixed (20)
114 (#117) LEGEND CHX 06:38:36 487 Open Men (40)
115 (#628) TEAM X 06:40:23 491 Grand Masters Men (17)
116 (#609) DEFEND FIRE PROTECTION 06:41:28 477 Mixed (21)
117 (#606) AXIS HOUSE CYCLE 4 CANSA 06:43:18 497 Grand Masters Men (18)
118 (#420) INOSYM 06:43:28 501 Masters Men (33)
119 (#502) DEFEND FIRE PROTECTION GIRLS ON FIRE 06:45:08 505 Masters Women (4)
120 (#505) I SHOP NEW WORLD 06:45:39 509 Masters Women (5)
121 (#329) THE WHEELS 06:46:16 513 Mixed (22)
122 (#456) ZOOMEN 06:52:00 517 Masters Men (34)
123 (#622) SMILES FOR THE PACIFIC 06:52:06 521 Grand Masters Men (19)
124 (#639) WELL VENTECH 06:52:37 525 Grand Masters Men (20)
125 (#145) THE OTHER GUYS 06:53:00 529 Open Men (41)
126 (#131) RATHOLE RACING 06:53:37 533 Open Men (42)
127 (#129) PROJECT THREE SIXTY LIMITED 06:54:05 541 Open Men (43)
128 (#319) RED ALERT 06:57:18 545 Mixed (23)
129 (#441) TEAM DANÆS AHON 06:58:16 549 Masters Men (35)
130 (#406) BOTH SIDES OF THE DITCH 07:01:37 553 Masters Men (36)
131 (#602) 2 AUSSIE PADDLERS 07:01:37 557 Grand Masters Men (21)
132 (#501) CABLE LOGGING GERALDINE NZ 07:01:58 561 Masters Women (6)
133 (#626) TEAM DNR 07:02:01 565 Grand Masters Men (22)
134 (#612) EPICURE 07:03:49 569 Grand Masters Men (23)
135 (#610) DEUSA 07:05:50 573 Grand Masters Men (24)
136 (#325) TEAM EDGAR 07:05:57 577 Mixed (24)
137 (#416) GLOBALID 07:06:51 581 Masters Men (37)
138 (#324) SUNKONGS 07:07:02 585 Mixed (25)
139 (#306) BLACKYARD RACING - SI 07:08:36 589 Mixed (26)
140 (#605) AGAINST ALL ODDS 07:09:42 593 Grand Masters Men (25)
141 (#445) TERRA FIRMA SKODA 07:11:09 597 Masters Men (38)
142 (#455) WINE DINE FINISH LINE 07:24:50 605 Masters Men (39)
143 (#304) JACQUES & GEORGIA 07:25:27 610 Mixed (27)
144 (#408) CALSONASSOS IBIZA 1 07:25:51 615 Masters Men (40)
145 (#624) START SLOW 07:28:58 619 Grand Masters Men (26)
146 (#627) TEAM MAMMOTH 07:31:48 526 Grand Masters Men (27)
147 (#635) TRYING AGAIN 07:44:05 633 Grand Masters Men (28)
148 (#423) LUP & HONG 08:00:59 639 Masters Men (41)
149 (#332) WESTRA-CHOO 08:06:07 647 Mixed (28)
150 (#307) BLACKYARD RACING NI 08:06:24 651 Mixed (29)
151 (#625) TEAM BIG RIDE 08:07:37 655 Grand Masters Men (29)
152 (#617) OH REALLY 08:18:07 661 Grand Masters Men (30)
153 (#308) COLORADO CRUISERS 08:31:40 667 Mixed (30)
- (#103) BLUE CYCLES Open Men
- (#414) DUSTYDAZE WHANGAREI Masters Men
- (#115) LA PLATA PEDALERS Open Men
- (#504) GREG PARRÆS GIRL TORQUE Masters Women
- (#615) JAM Grand Masters Men
- (#418) I CLIMB WELL FOR MY WEIGHT Masters Men
- (#613) GIORGI EXCLUSIVE HOMES Grand Masters Men
- (#614) GIVE IT HORNS Grand Masters Men
- (#311) FASTLANE 2 Mixed
- (#312) FENTON Mixed
- (#415) FIZO CYCLING Masters Men
- (#427) OAMARU HONDA Masters Men
- (#506) NORTH TO SOUTH Masters Women
- (#439) SYED & JUAN MTB TEAM Masters Men
- (#432) RIVET RACING Masters Men
- (#435) SHIMANO Masters Men
- (#634) THE WHIPPETS Grand Masters Men
- (#144) THE HIPPY & THE GYPPY Open Men
- (#142) THAT'S THE RHYTHM Open Men
- (#632) THE BEAVERTOWN BOYS Grand Masters Men
- (#327) TEAM PHENOMENAL HOPE Mixed
- (#442) TEAM KT-26 Masters Men
- (#453) WALTER AND STATLER Masters Men